sensor_id;sensor_type;location;lat;lon;timestamp;P1;durP1;ratioP1;P2;durP2;ratioP2
72201;SDS011;60105;54.956;73.412;2022-07-05T00:02:25;24.10;;;8.60;;
72201;SDS011;60105;54.956;73.412;2022-07-05T00:04:51;15.85;;;7.15;;
72201;SDS011;60105;54.956;73.412;2022-07-05T00:07:18;18.23;;;7.55;;
72201;SDS011;60105;54.956;73.412;2022-07-05T00:09:54;17.98;;;7.28;;
72201;SDS011;60105;54.956;73.412;2022-07-05T00:12:22;13.48;;;6.88;;
72201;SDS011;60105;54.956;73.412;2022-07-05T00:14:51;15.20;;;7.90;;
72201;SDS011;60105;54.956;73.412;2022-07-05T00:17:27;17.35;;;7.45;;
72201;SDS011;60105;54.956;73.412;2022-07-05T00:19:54;15.68;;;7.85;;
72201;SDS011;60105;54.956;73.412;2022-07-05T00:22:20;19.75;;;8.13;;
72201;SDS011;60105;54.956;73.412;2022-07-05T00:24:46;21.85;;;9.35;;
72201;SDS011;60105;54.956;73.412;2022-07-05T00:27:14;10.50;;;6.10;;
72201;SDS011;60105;54.956;73.412;2022-07-05T00:29:40;19.38;;;6.50;;
72201;SDS011;60105;54.956;73.412;2022-07-05T00:32:07;13.88;;;6.50;;
72201;SDS011;60105;54.956;73.412;2022-07-05T00:34:33;15.27;;;6.53;;
72201;SDS011;60105;54.956;73.412;2022-07-05T00:36:59;14.98;;;6.68;;
72201;SDS011;60105;54.956;73.412;2022-07-05T00:39:25;14.20;;;7.60;;
72201;SDS011;60105;54.956;73.412;2022-07-05T00:41:57;19.10;;;7.80;;
72201;SDS011;60105;54.956;73.412;2022-07-05T00:44:30;15.85;;;6.70;;
72201;SDS011;60105;54.956;73.412;2022-07-05T00:47:04;20.63;;;7.20;;
72201;SDS011;60105;54.956;73.412;2022-07-05T00:49:32;16.58;;;7.15;;
72201;SDS011;60105;54.956;73.412;2022-07-05T00:52:04;12.70;;;5.00;;
72201;SDS011;60105;54.956;73.412;2022-07-05T00:54:34;14.82;;;5.60;;
72201;SDS011;60105;54.956;73.412;2022-07-05T00:57:02;16.20;;;6.93;;
72201;SDS011;60105;54.956;73.412;2022-07-05T00:59:29;16.15;;;6.40;;
72201;SDS011;60105;54.956;73.412;2022-07-05T01:01:57;15.10;;;6.78;;
72201;SDS011;60105;54.956;73.412;2022-07-05T01:04:24;15.50;;;6.80;;
72201;SDS011;60105;54.956;73.412;2022-07-05T01:06:51;15.10;;;5.43;;
72201;SDS011;60105;54.956;73.412;2022-07-05T01:09:19;18.75;;;7.28;;
72201;SDS011;60105;54.956;73.412;2022-07-05T01:11:47;22.58;;;9.80;;
72201;SDS011;60105;54.956;73.412;2022-07-05T01:14:18;21.77;;;8.73;;
72201;SDS011;60105;54.956;73.412;2022-07-05T01:16:46;14.40;;;5.87;;
72201;SDS011;60105;54.956;73.412;2022-07-05T01:19:14;15.60;;;5.88;;
72201;SDS011;60105;54.956;73.412;2022-07-05T01:21:43;15.02;;;6.30;;
72201;SDS011;60105;54.956;73.412;2022-07-05T01:24:10;19.73;;;8.05;;
72201;SDS011;60105;54.956;73.412;2022-07-05T01:26:39;13.90;;;5.03;;
72201;SDS011;60105;54.956;73.412;2022-07-05T01:29:07;9.60;;;5.20;;
72201;SDS011;60105;54.956;73.412;2022-07-05T01:31:37;18.65;;;5.90;;
72201;SDS011;60105;54.956;73.412;2022-07-05T01:34:04;18.35;;;7.20;;
72201;SDS011;60105;54.956;73.412;2022-07-05T01:36:32;17.42;;;7.57;;
72201;SDS011;60105;54.956;73.412;2022-07-05T01:38:59;15.77;;;6.50;;
72201;SDS011;60105;54.956;73.412;2022-07-05T01:41:27;13.67;;;6.47;;
72201;SDS011;60105;54.956;73.412;2022-07-05T01:43:53;17.48;;;6.60;;
72201;SDS011;60105;54.956;73.412;2022-07-05T01:46:20;17.42;;;6.50;;
72201;SDS011;60105;54.956;73.412;2022-07-05T01:48:49;17.08;;;6.93;;
72201;SDS011;60105;54.956;73.412;2022-07-05T01:51:24;20.05;;;8.20;;
72201;SDS011;60105;54.956;73.412;2022-07-05T01:53:54;18.33;;;6.67;;
72201;SDS011;60105;54.956;73.412;2022-07-05T01:56:21;15.30;;;5.97;;
72201;SDS011;60105;54.956;73.412;2022-07-05T01:58:47;20.92;;;6.63;;
72201;SDS011;60105;54.956;73.412;2022-07-05T02:01:14;20.70;;;6.30;;
72201;SDS011;60105;54.956;73.412;2022-07-05T02:03:40;22.88;;;7.43;;
72201;SDS011;60105;54.956;73.412;2022-07-05T02:06:07;21.10;;;6.83;;
72201;SDS011;60105;54.956;73.412;2022-07-05T02:08:36;20.80;;;6.75;;
72201;SDS011;60105;54.956;73.412;2022-07-05T02:11:07;22.10;;;6.53;;
72201;SDS011;60105;54.956;73.412;2022-07-05T02:13:33;15.77;;;4.60;;
72201;SDS011;60105;54.956;73.412;2022-07-05T02:15:59;19.95;;;5.35;;
72201;SDS011;60105;54.956;73.412;2022-07-05T02:18:28;15.80;;;5.60;;
72201;SDS011;60105;54.956;73.412;2022-07-05T02:20:55;17.27;;;6.07;;
72201;SDS011;60105;54.956;73.412;2022-07-05T02:23:21;11.32;;;4.60;;
72201;SDS011;60105;54.956;73.412;2022-07-05T02:25:47;18.38;;;5.13;;
72201;SDS011;60105;54.956;73.412;2022-07-05T02:28:16;18.95;;;5.38;;
72201;SDS011;60105;54.956;73.412;2022-07-05T02:30:46;17.17;;;5.10;;
72201;SDS011;60105;54.956;73.412;2022-07-05T02:33:23;9.32;;;4.50;;
72201;SDS011;60105;54.956;73.412;2022-07-05T02:35:50;11.93;;;4.07;;
72201;SDS011;60105;54.956;73.412;2022-07-05T02:38:16;10.80;;;3.88;;
72201;SDS011;60105;54.956;73.412;2022-07-05T02:40:53;6.30;;;3.65;;
72201;SDS011;60105;54.956;73.412;2022-07-05T02:43:19;9.50;;;3.50;;
72201;SDS011;60105;54.956;73.412;2022-07-05T02:45:46;7.10;;;3.40;;
72201;SDS011;60105;54.956;73.412;2022-07-05T02:48:13;8.70;;;4.03;;
72201;SDS011;60105;54.956;73.412;2022-07-05T02:50:40;8.23;;;3.35;;
72201;SDS011;60105;54.956;73.412;2022-07-05T02:53:07;11.23;;;3.72;;
72201;SDS011;60105;54.956;73.412;2022-07-05T02:55:33;9.90;;;3.47;;
72201;SDS011;60105;54.956;73.412;2022-07-05T02:58:09;5.82;;;3.72;;
72201;SDS011;60105;54.956;73.412;2022-07-05T03:00:36;8.80;;;3.83;;
72201;SDS011;60105;54.956;73.412;2022-07-05T03:03:02;10.35;;;3.83;;
72201;SDS011;60105;54.956;73.412;2022-07-05T03:05:30;8.48;;;3.45;;
72201;SDS011;60105;54.956;73.412;2022-07-05T03:08:01;7.27;;;2.90;;
72201;SDS011;60105;54.956;73.412;2022-07-05T03:10:29;8.45;;;4.20;;
72201;SDS011;60105;54.956;73.412;2022-07-05T03:12:58;8.18;;;3.63;;
72201;SDS011;60105;54.956;73.412;2022-07-05T03:15:25;6.25;;;3.60;;
72201;SDS011;60105;54.956;73.412;2022-07-05T03:17:56;7.53;;;3.25;;
72201;SDS011;60105;54.956;73.412;2022-07-05T03:20:24;14.20;;;3.93;;
72201;SDS011;60105;54.956;73.412;2022-07-05T03:22:51;10.38;;;3.72;;
72201;SDS011;60105;54.956;73.412;2022-07-05T03:25:27;6.05;;;3.25;;
72201;SDS011;60105;54.956;73.412;2022-07-05T03:27:53;8.82;;;3.40;;
72201;SDS011;60105;54.956;73.412;2022-07-05T03:30:20;8.23;;;3.20;;
72201;SDS011;60105;54.956;73.412;2022-07-05T03:32:46;10.13;;;3.40;;
72201;SDS011;60105;54.956;73.412;2022-07-05T03:35:13;7.88;;;4.07;;
72201;SDS011;60105;54.956;73.412;2022-07-05T03:37:39;9.27;;;3.50;;
72201;SDS011;60105;54.956;73.412;2022-07-05T03:40:08;9.52;;;3.53;;
72201;SDS011;60105;54.956;73.412;2022-07-05T03:42:35;10.73;;;3.72;;
72201;SDS011;60105;54.956;73.412;2022-07-05T03:45:02;8.27;;;3.43;;
72201;SDS011;60105;54.956;73.412;2022-07-05T03:47:29;10.18;;;3.70;;
72201;SDS011;60105;54.956;73.412;2022-07-05T03:49:55;10.07;;;3.83;;
72201;SDS011;60105;54.956;73.412;2022-07-05T03:52:21;8.25;;;3.60;;
72201;SDS011;60105;54.956;73.412;2022-07-05T03:54:48;6.68;;;3.47;;
72201;SDS011;60105;54.956;73.412;2022-07-05T03:57:14;11.03;;;3.80;;
72201;SDS011;60105;54.956;73.412;2022-07-05T03:59:46;10.88;;;3.53;;
72201;SDS011;60105;54.956;73.412;2022-07-05T04:02:14;9.68;;;3.72;;
72201;SDS011;60105;54.956;73.412;2022-07-05T04:04:42;7.03;;;3.70;;
72201;SDS011;60105;54.956;73.412;2022-07-05T04:07:18;6.43;;;3.35;;
72201;SDS011;60105;54.956;73.412;2022-07-05T04:09:56;8.97;;;3.70;;
72201;SDS011;60105;54.956;73.412;2022-07-05T04:12:22;10.15;;;4.05;;
72201;SDS011;60105;54.956;73.412;2022-07-05T04:14:59;7.78;;;4.38;;
72201;SDS011;60105;54.956;73.412;2022-07-05T04:17:25;8.13;;;3.30;;
72201;SDS011;60105;54.956;73.412;2022-07-05T04:19:51;9.40;;;3.40;;
72201;SDS011;60105;54.956;73.412;2022-07-05T04:22:18;11.17;;;4.00;;
72201;SDS011;60105;54.956;73.412;2022-07-05T04:24:44;12.32;;;3.83;;
72201;SDS011;60105;54.956;73.412;2022-07-05T04:27:29;10.90;;;3.83;;
72201;SDS011;60105;54.956;73.412;2022-07-05T04:29:56;8.95;;;3.78;;
72201;SDS011;60105;54.956;73.412;2022-07-05T04:32:24;7.70;;;4.20;;
72201;SDS011;60105;54.956;73.412;2022-07-05T04:34:56;7.30;;;4.37;;
72201;SDS011;60105;54.956;73.412;2022-07-05T04:37:27;9.93;;;4.55;;
72201;SDS011;60105;54.956;73.412;2022-07-05T04:40:05;6.82;;;3.97;;
72201;SDS011;60105;54.956;73.412;2022-07-05T04:42:34;7.03;;;4.25;;
72201;SDS011;60105;54.956;73.412;2022-07-05T04:45:08;9.38;;;4.30;;
72201;SDS011;60105;54.956;73.412;2022-07-05T04:47:35;10.00;;;4.03;;
72201;SDS011;60105;54.956;73.412;2022-07-05T04:50:03;13.68;;;4.70;;
72201;SDS011;60105;54.956;73.412;2022-07-05T04:52:29;11.82;;;4.22;;
72201;SDS011;60105;54.956;73.412;2022-07-05T04:54:56;11.05;;;4.78;;
72201;SDS011;60105;54.956;73.412;2022-07-05T04:57:36;9.13;;;4.28;;
72201;SDS011;60105;54.956;73.412;2022-07-05T05:00:04;9.73;;;4.70;;
72201;SDS011;60105;54.956;73.412;2022-07-05T05:02:34;10.80;;;3.85;;
72201;SDS011;60105;54.956;73.412;2022-07-05T05:05:06;9.60;;;4.85;;
72201;SDS011;60105;54.956;73.412;2022-07-05T05:07:41;9.82;;;4.35;;
72201;SDS011;60105;54.956;73.412;2022-07-05T05:10:08;12.10;;;4.35;;
72201;SDS011;60105;54.956;73.412;2022-07-05T05:12:34;8.23;;;4.67;;
72201;SDS011;60105;54.956;73.412;2022-07-05T05:15:01;14.85;;;7.25;;
72201;SDS011;60105;54.956;73.412;2022-07-05T05:17:40;13.25;;;6.13;;
72201;SDS011;60105;54.956;73.412;2022-07-05T05:20:15;9.38;;;5.18;;
72201;SDS011;60105;54.956;73.412;2022-07-05T05:22:42;14.65;;;4.60;;
72201;SDS011;60105;54.956;73.412;2022-07-05T05:25:09;11.50;;;4.63;;
72201;SDS011;60105;54.956;73.412;2022-07-05T05:27:46;8.68;;;4.50;;
72201;SDS011;60105;54.956;73.412;2022-07-05T05:30:18;8.20;;;3.90;;
72201;SDS011;60105;54.956;73.412;2022-07-05T05:32:45;8.52;;;3.80;;
72201;SDS011;60105;54.956;73.412;2022-07-05T05:35:12;7.35;;;3.95;;
72201;SDS011;60105;54.956;73.412;2022-07-05T05:37:45;5.73;;;3.83;;
72201;SDS011;60105;54.956;73.412;2022-07-05T05:40:12;8.85;;;3.65;;
72201;SDS011;60105;54.956;73.412;2022-07-05T05:42:38;10.15;;;4.32;;
72201;SDS011;60105;54.956;73.412;2022-07-05T05:45:09;9.25;;;4.68;;
72201;SDS011;60105;54.956;73.412;2022-07-05T05:47:43;10.45;;;4.20;;
72201;SDS011;60105;54.956;73.412;2022-07-05T05:50:12;7.23;;;3.80;;
72201;SDS011;60105;54.956;73.412;2022-07-05T05:52:49;11.15;;;5.03;;
72201;SDS011;60105;54.956;73.412;2022-07-05T05:55:15;10.70;;;4.45;;
72201;SDS011;60105;54.956;73.412;2022-07-05T05:57:43;8.57;;;4.05;;
72201;SDS011;60105;54.956;73.412;2022-07-05T06:00:09;9.13;;;4.28;;
72201;SDS011;60105;54.956;73.412;2022-07-05T06:02:39;9.00;;;4.07;;
72201;SDS011;60105;54.956;73.412;2022-07-05T06:05:05;8.77;;;3.75;;
72201;SDS011;60105;54.956;73.412;2022-07-05T06:07:54;9.45;;;3.85;;
72201;SDS011;60105;54.956;73.412;2022-07-05T06:10:25;8.93;;;4.60;;
72201;SDS011;60105;54.956;73.412;2022-07-05T06:12:53;11.85;;;3.97;;
72201;SDS011;60105;54.956;73.412;2022-07-05T06:15:21;7.07;;;4.03;;
72201;SDS011;60105;54.956;73.412;2022-07-05T06:17:48;7.97;;;4.10;;
72201;SDS011;60105;54.956;73.412;2022-07-05T06:20:18;8.90;;;4.88;;
72201;SDS011;60105;54.956;73.412;2022-07-05T06:22:50;7.78;;;3.90;;
72201;SDS011;60105;54.956;73.412;2022-07-05T06:25:17;8.45;;;3.72;;
72201;SDS011;60105;54.956;73.412;2022-07-05T06:27:54;9.77;;;3.87;;
72201;SDS011;60105;54.956;73.412;2022-07-05T06:30:24;20.42;;;5.60;;
72201;SDS011;60105;54.956;73.412;2022-07-05T06:32:52;13.70;;;4.45;;
72201;SDS011;60105;54.956;73.412;2022-07-05T06:35:20;11.52;;;4.07;;
72201;SDS011;60105;54.956;73.412;2022-07-05T06:40:26;9.13;;;4.40;;
72201;SDS011;60105;54.956;73.412;2022-07-05T06:42:55;11.95;;;5.03;;
72201;SDS011;60105;54.956;73.412;2022-07-05T06:45:29;13.57;;;4.53;;
72201;SDS011;60105;54.956;73.412;2022-07-05T06:47:57;7.10;;;3.92;;
72201;SDS011;60105;54.956;73.412;2022-07-05T06:50:25;11.48;;;4.05;;
72201;SDS011;60105;54.956;73.412;2022-07-05T06:52:52;6.93;;;3.90;;
72201;SDS011;60105;54.956;73.412;2022-07-05T06:55:19;14.50;;;3.50;;
72201;SDS011;60105;54.956;73.412;2022-07-05T06:57:45;11.43;;;4.18;;
72201;SDS011;60105;54.956;73.412;2022-07-05T07:00:19;13.10;;;4.18;;
72201;SDS011;60105;54.956;73.412;2022-07-05T07:02:48;11.18;;;4.13;;
72201;SDS011;60105;54.956;73.412;2022-07-05T07:05:14;6.13;;;3.80;;
72201;SDS011;60105;54.956;73.412;2022-07-05T07:07:40;8.73;;;3.92;;
72201;SDS011;60105;54.956;73.412;2022-07-05T07:10:25;7.00;;;4.13;;
72201;SDS011;60105;54.956;73.412;2022-07-05T07:12:51;10.32;;;4.43;;
72201;SDS011;60105;54.956;73.412;2022-07-05T07:15:17;9.23;;;3.80;;
72201;SDS011;60105;54.956;73.412;2022-07-05T07:17:43;8.47;;;4.43;;
72201;SDS011;60105;54.956;73.412;2022-07-05T07:20:10;10.52;;;4.93;;
72201;SDS011;60105;54.956;73.412;2022-07-05T07:22:36;6.60;;;4.72;;
72201;SDS011;60105;54.956;73.412;2022-07-05T07:25:11;6.95;;;4.68;;
72201;SDS011;60105;54.956;73.412;2022-07-05T07:27:43;10.55;;;4.75;;
72201;SDS011;60105;54.956;73.412;2022-07-05T07:30:12;8.07;;;4.83;;
72201;SDS011;60105;54.956;73.412;2022-07-05T07:32:44;9.52;;;4.95;;
72201;SDS011;60105;54.956;73.412;2022-07-05T07:35:10;8.25;;;4.20;;
72201;SDS011;60105;54.956;73.412;2022-07-05T07:37:37;10.80;;;4.30;;
72201;SDS011;60105;54.956;73.412;2022-07-05T07:40:03;10.13;;;5.00;;
72201;SDS011;60105;54.956;73.412;2022-07-05T07:42:41;8.43;;;5.13;;
72201;SDS011;60105;54.956;73.412;2022-07-05T07:45:07;11.85;;;5.18;;
72201;SDS011;60105;54.956;73.412;2022-07-05T07:47:34;8.32;;;4.78;;
72201;SDS011;60105;54.956;73.412;2022-07-05T07:50:09;8.52;;;3.55;;
72201;SDS011;60105;54.956;73.412;2022-07-05T07:52:35;8.75;;;4.05;;
72201;SDS011;60105;54.956;73.412;2022-07-05T07:55:04;8.53;;;4.93;;
72201;SDS011;60105;54.956;73.412;2022-07-05T07:57:41;8.25;;;4.30;;
72201;SDS011;60105;54.956;73.412;2022-07-05T08:00:07;8.38;;;4.53;;
72201;SDS011;60105;54.956;73.412;2022-07-05T08:02:37;8.80;;;4.10;;
72201;SDS011;60105;54.956;73.412;2022-07-05T08:05:03;8.32;;;3.88;;
72201;SDS011;60105;54.956;73.412;2022-07-05T08:07:40;7.70;;;4.10;;
72201;SDS011;60105;54.956;73.412;2022-07-05T08:10:07;8.75;;;3.67;;
72201;SDS011;60105;54.956;73.412;2022-07-05T08:12:33;7.13;;;4.22;;
72201;SDS011;60105;54.956;73.412;2022-07-05T08:14:59;10.20;;;3.97;;
72201;SDS011;60105;54.956;73.412;2022-07-05T08:17:26;7.32;;;4.22;;
72201;SDS011;60105;54.956;73.412;2022-07-05T08:19:52;10.80;;;4.67;;
72201;SDS011;60105;54.956;73.412;2022-07-05T08:22:36;10.05;;;4.57;;
72201;SDS011;60105;54.956;73.412;2022-07-05T08:25:02;7.22;;;4.07;;
72201;SDS011;60105;54.956;73.412;2022-07-05T08:27:29;6.75;;;4.13;;
72201;SDS011;60105;54.956;73.412;2022-07-05T08:29:55;6.47;;;4.10;;
72201;SDS011;60105;54.956;73.412;2022-07-05T08:32:21;8.20;;;4.10;;
72201;SDS011;60105;54.956;73.412;2022-07-05T08:34:47;8.73;;;3.92;;
72201;SDS011;60105;54.956;73.412;2022-07-05T08:37:13;11.95;;;4.68;;
72201;SDS011;60105;54.956;73.412;2022-07-05T08:39:40;8.63;;;4.35;;
72201;SDS011;60105;54.956;73.412;2022-07-05T08:42:08;7.63;;;4.03;;
72201;SDS011;60105;54.956;73.412;2022-07-05T08:44:38;6.27;;;3.83;;
72201;SDS011;60105;54.956;73.412;2022-07-05T08:47:08;10.30;;;4.70;;
72201;SDS011;60105;54.956;73.412;2022-07-05T08:49:46;7.38;;;4.18;;
72201;SDS011;60105;54.956;73.412;2022-07-05T08:52:15;7.97;;;4.88;;
72201;SDS011;60105;54.956;73.412;2022-07-05T08:54:43;12.10;;;4.85;;
72201;SDS011;60105;54.956;73.412;2022-07-05T08:57:12;9.20;;;4.90;;
72201;SDS011;60105;54.956;73.412;2022-07-05T08:59:38;11.20;;;4.88;;
72201;SDS011;60105;54.956;73.412;2022-07-05T09:02:13;11.88;;;4.68;;
72201;SDS011;60105;54.956;73.412;2022-07-05T09:04:43;8.13;;;4.35;;
72201;SDS011;60105;54.956;73.412;2022-07-05T09:07:10;8.05;;;4.35;;
72201;SDS011;60105;54.956;73.412;2022-07-05T09:09:42;9.53;;;4.53;;
72201;SDS011;60105;54.956;73.412;2022-07-05T09:12:10;9.30;;;4.72;;
72201;SDS011;60105;54.956;73.412;2022-07-05T09:14:38;9.00;;;3.80;;
72201;SDS011;60105;54.956;73.412;2022-07-05T09:17:04;16.17;;;4.13;;
72201;SDS011;60105;54.956;73.412;2022-07-05T09:19:31;7.72;;;3.65;;
72201;SDS011;60105;54.956;73.412;2022-07-05T09:22:01;11.13;;;3.63;;
72201;SDS011;60105;54.956;73.412;2022-07-05T09:24:31;10.98;;;4.20;;
72201;SDS011;60105;54.956;73.412;2022-07-05T09:27:04;11.60;;;4.50;;
72201;SDS011;60105;54.956;73.412;2022-07-05T09:29:54;9.38;;;4.40;;
72201;SDS011;60105;54.956;73.412;2022-07-05T09:32:30;12.00;;;3.95;;
72201;SDS011;60105;54.956;73.412;2022-07-05T09:35:18;15.60;;;4.27;;
72201;SDS011;60105;54.956;73.412;2022-07-05T09:37:44;10.85;;;4.03;;
72201;SDS011;60105;54.956;73.412;2022-07-05T09:40:11;10.55;;;4.38;;
72201;SDS011;60105;54.956;73.412;2022-07-05T09:42:42;10.45;;;4.22;;
72201;SDS011;60105;54.956;73.412;2022-07-05T09:45:08;10.13;;;3.90;;
72201;SDS011;60105;54.956;73.412;2022-07-05T09:47:34;18.93;;;5.93;;
72201;SDS011;60105;54.956;73.412;2022-07-05T09:50:00;12.98;;;5.75;;
72201;SDS011;60105;54.956;73.412;2022-07-05T09:52:31;9.23;;;4.55;;
72201;SDS011;60105;54.956;73.412;2022-07-05T09:57:42;7.35;;;4.38;;
72201;SDS011;60105;54.956;73.412;2022-07-05T10:00:16;9.57;;;4.97;;
72201;SDS011;60105;54.956;73.412;2022-07-05T10:02:44;10.38;;;4.80;;
72201;SDS011;60105;54.956;73.412;2022-07-05T10:05:16;7.78;;;4.93;;
72201;SDS011;60105;54.956;73.412;2022-07-05T10:07:50;9.77;;;5.25;;
72201;SDS011;60105;54.956;73.412;2022-07-05T10:10:21;10.95;;;5.63;;
72201;SDS011;60105;54.956;73.412;2022-07-05T10:13:00;11.77;;;6.47;;
72201;SDS011;60105;54.956;73.412;2022-07-05T10:15:29;16.13;;;8.57;;
72201;SDS011;60105;54.956;73.412;2022-07-05T10:18:03;11.55;;;6.03;;
72201;SDS011;60105;54.956;73.412;2022-07-05T10:20:33;11.93;;;5.47;;
72201;SDS011;60105;54.956;73.412;2022-07-05T10:25:49;13.27;;;5.10;;
72201;SDS011;60105;54.956;73.412;2022-07-05T10:28:17;8.23;;;5.18;;
72201;SDS011;60105;54.956;73.412;2022-07-05T10:30:45;8.35;;;5.63;;
72201;SDS011;60105;54.956;73.412;2022-07-05T10:33:17;7.93;;;5.60;;
72201;SDS011;60105;54.956;73.412;2022-07-05T10:35:47;10.48;;;5.25;;
72201;SDS011;60105;54.956;73.412;2022-07-05T10:38:13;9.67;;;5.50;;
72201;SDS011;60105;54.956;73.412;2022-07-05T10:40:48;8.32;;;4.75;;
72201;SDS011;60105;54.956;73.412;2022-07-05T10:43:18;9.57;;;4.90;;
72201;SDS011;60105;54.956;73.412;2022-07-05T10:45:48;7.80;;;4.85;;
72201;SDS011;60105;54.956;73.412;2022-07-05T10:48:20;10.20;;;5.72;;
72201;SDS011;60105;54.956;73.412;2022-07-05T10:50:53;9.03;;;5.93;;
72201;SDS011;60105;54.956;73.412;2022-07-05T11:03:46;8.60;;;5.37;;
72201;SDS011;60105;54.956;73.412;2022-07-05T11:06:28;9.70;;;5.70;;
72201;SDS011;60105;54.956;73.412;2022-07-05T11:11:37;10.50;;;6.22;;
72201;SDS011;60105;54.956;73.412;2022-07-05T11:14:04;10.48;;;6.50;;
72201;SDS011;60105;54.956;73.412;2022-07-05T11:22:26;9.02;;;5.68;;
72201;SDS011;60105;54.956;73.412;2022-07-05T11:24:52;11.13;;;6.10;;
72201;SDS011;60105;54.956;73.412;2022-07-05T11:27:19;15.35;;;6.63;;
72201;SDS011;60105;54.956;73.412;2022-07-05T11:29:46;13.43;;;6.93;;
72201;SDS011;60105;54.956;73.412;2022-07-05T11:32:19;18.73;;;6.20;;
72201;SDS011;60105;54.956;73.412;2022-07-05T11:35:12;10.75;;;5.75;;
72201;SDS011;60105;54.956;73.412;2022-07-05T11:37:56;8.90;;;6.13;;
72201;SDS011;60105;54.956;73.412;2022-07-05T11:40:30;9.43;;;6.20;;
72201;SDS011;60105;54.956;73.412;2022-07-05T11:43:00;10.00;;;6.07;;
72201;SDS011;60105;54.956;73.412;2022-07-05T11:45:28;11.40;;;6.35;;
72201;SDS011;60105;54.956;73.412;2022-07-05T11:47:56;12.93;;;6.10;;
72201;SDS011;60105;54.956;73.412;2022-07-05T11:50:26;10.95;;;5.85;;
72201;SDS011;60105;54.956;73.412;2022-07-05T11:52:57;8.60;;;5.88;;
72201;SDS011;60105;54.956;73.412;2022-07-05T11:55:24;8.57;;;6.10;;
72201;SDS011;60105;54.956;73.412;2022-07-05T11:57:53;15.40;;;6.07;;
72201;SDS011;60105;54.956;73.412;2022-07-05T12:00:30;9.57;;;5.72;;
72201;SDS011;60105;54.956;73.412;2022-07-05T12:02:58;11.60;;;6.18;;
72201;SDS011;60105;54.956;73.412;2022-07-05T12:05:29;10.43;;;6.10;;
72201;SDS011;60105;54.956;73.412;2022-07-05T12:07:56;8.73;;;5.73;;
72201;SDS011;60105;54.956;73.412;2022-07-05T12:10:22;12.80;;;6.15;;
72201;SDS011;60105;54.956;73.412;2022-07-05T12:13:07;12.20;;;6.07;;
72201;SDS011;60105;54.956;73.412;2022-07-05T12:15:37;11.07;;;5.75;;
72201;SDS011;60105;54.956;73.412;2022-07-05T12:18:08;11.07;;;6.13;;
72201;SDS011;60105;54.956;73.412;2022-07-05T12:20:48;13.37;;;6.20;;
72201;SDS011;60105;54.956;73.412;2022-07-05T12:23:14;10.45;;;6.32;;
72201;SDS011;60105;54.956;73.412;2022-07-05T12:25:40;7.88;;;5.38;;
72201;SDS011;60105;54.956;73.412;2022-07-05T12:28:08;11.93;;;6.05;;
72201;SDS011;60105;54.956;73.412;2022-07-05T12:30:35;8.82;;;5.70;;
72201;SDS011;60105;54.956;73.412;2022-07-05T12:33:05;7.50;;;5.67;;
72201;SDS011;60105;54.956;73.412;2022-07-05T12:35:36;8.43;;;5.70;;
72201;SDS011;60105;54.956;73.412;2022-07-05T12:38:08;7.80;;;5.20;;
72201;SDS011;60105;54.956;73.412;2022-07-05T12:40:44;10.40;;;5.85;;
72201;SDS011;60105;54.956;73.412;2022-07-05T12:43:22;12.20;;;6.28;;
72201;SDS011;60105;54.956;73.412;2022-07-05T12:46:01;10.47;;;6.20;;
72201;SDS011;60105;54.956;73.412;2022-07-05T12:48:35;8.85;;;5.68;;
72201;SDS011;60105;54.956;73.412;2022-07-05T12:51:03;11.45;;;6.07;;
72201;SDS011;60105;54.956;73.412;2022-07-05T12:53:31;11.10;;;6.85;;
72201;SDS011;60105;54.956;73.412;2022-07-05T12:56:15;9.45;;;6.20;;
72201;SDS011;60105;54.956;73.412;2022-07-05T12:59:01;9.27;;;6.07;;
72201;SDS011;60105;54.956;73.412;2022-07-05T13:01:31;9.57;;;6.03;;
72201;SDS011;60105;54.956;73.412;2022-07-05T13:06:49;17.35;;;6.25;;
72201;SDS011;60105;54.956;73.412;2022-07-05T13:12:09;8.87;;;5.47;;
72201;SDS011;60105;54.956;73.412;2022-07-05T13:14:40;10.88;;;5.82;;
72201;SDS011;60105;54.956;73.412;2022-07-05T13:17:07;11.23;;;6.18;;
72201;SDS011;60105;54.956;73.412;2022-07-05T13:19:35;10.90;;;6.10;;
72201;SDS011;60105;54.956;73.412;2022-07-05T13:22:02;8.18;;;5.75;;
72201;SDS011;60105;54.956;73.412;2022-07-05T13:24:28;9.30;;;6.30;;
72201;SDS011;60105;54.956;73.412;2022-07-05T13:26:55;8.93;;;5.68;;
72201;SDS011;60105;54.956;73.412;2022-07-05T13:29:21;11.85;;;6.88;;
72201;SDS011;60105;54.956;73.412;2022-07-05T13:31:48;9.15;;;6.35;;
72201;SDS011;60105;54.956;73.412;2022-07-05T13:34:14;11.23;;;6.72;;
72201;SDS011;60105;54.956;73.412;2022-07-05T13:36:40;10.87;;;5.83;;
72201;SDS011;60105;54.956;73.412;2022-07-05T13:39:12;12.38;;;6.22;;
72201;SDS011;60105;54.956;73.412;2022-07-05T13:41:38;12.05;;;6.38;;
72201;SDS011;60105;54.956;73.412;2022-07-05T13:44:04;9.70;;;6.72;;
72201;SDS011;60105;54.956;73.412;2022-07-05T13:46:31;9.10;;;6.03;;
72201;SDS011;60105;54.956;73.412;2022-07-05T13:48:57;10.60;;;6.77;;
72201;SDS011;60105;54.956;73.412;2022-07-05T13:51:23;13.30;;;7.03;;
72201;SDS011;60105;54.956;73.412;2022-07-05T13:53:49;8.45;;;6.45;;
72201;SDS011;60105;54.956;73.412;2022-07-05T13:56:15;10.57;;;6.10;;
72201;SDS011;60105;54.956;73.412;2022-07-05T13:58:41;9.35;;;6.40;;
72201;SDS011;60105;54.956;73.412;2022-07-05T14:01:08;11.33;;;6.40;;
72201;SDS011;60105;54.956;73.412;2022-07-05T14:03:34;9.57;;;6.57;;
72201;SDS011;60105;54.956;73.412;2022-07-05T14:06:10;10.48;;;5.75;;
72201;SDS011;60105;54.956;73.412;2022-07-05T14:08:36;8.52;;;5.80;;
72201;SDS011;60105;54.956;73.412;2022-07-05T14:11:02;8.65;;;6.45;;
72201;SDS011;60105;54.956;73.412;2022-07-05T14:13:29;10.07;;;7.33;;
72201;SDS011;60105;54.956;73.412;2022-07-05T14:16:05;8.68;;;6.75;;
72201;SDS011;60105;54.956;73.412;2022-07-05T14:18:33;8.27;;;5.63;;
72201;SDS011;60105;54.956;73.412;2022-07-05T14:20:59;8.95;;;5.45;;
72201;SDS011;60105;54.956;73.412;2022-07-05T14:23:35;8.55;;;6.28;;
72201;SDS011;60105;54.956;73.412;2022-07-05T14:26:01;10.53;;;6.17;;
72201;SDS011;60105;54.956;73.412;2022-07-05T14:28:29;12.43;;;7.05;;
72201;SDS011;60105;54.956;73.412;2022-07-05T14:30:55;10.70;;;6.25;;
72201;SDS011;60105;54.956;73.412;2022-07-05T14:33:21;8.93;;;6.35;;
72201;SDS011;60105;54.956;73.412;2022-07-05T14:35:47;9.35;;;6.78;;
72201;SDS011;60105;54.956;73.412;2022-07-05T14:38:14;9.90;;;6.73;;
72201;SDS011;60105;54.956;73.412;2022-07-05T14:40:50;9.88;;;7.15;;
72201;SDS011;60105;54.956;73.412;2022-07-05T14:43:16;10.07;;;6.75;;
72201;SDS011;60105;54.956;73.412;2022-07-05T14:45:42;8.60;;;6.80;;
72201;SDS011;60105;54.956;73.412;2022-07-05T14:48:08;11.50;;;6.43;;
72201;SDS011;60105;54.956;73.412;2022-07-05T14:50:35;9.80;;;6.80;;
72201;SDS011;60105;54.956;73.412;2022-07-05T14:53:06;10.23;;;6.47;;
72201;SDS011;60105;54.956;73.412;2022-07-05T14:55:34;8.75;;;6.43;;
72201;SDS011;60105;54.956;73.412;2022-07-05T14:58:02;9.23;;;7.00;;
72201;SDS011;60105;54.956;73.412;2022-07-05T15:00:28;8.82;;;5.60;;
72201;SDS011;60105;54.956;73.412;2022-07-05T15:02:54;8.37;;;5.97;;
72201;SDS011;60105;54.956;73.412;2022-07-05T15:05:30;7.97;;;5.95;;
72201;SDS011;60105;54.956;73.412;2022-07-05T15:07:56;8.13;;;5.47;;
72201;SDS011;60105;54.956;73.412;2022-07-05T15:10:24;8.43;;;5.70;;
72201;SDS011;60105;54.956;73.412;2022-07-05T15:12:53;8.18;;;5.97;;
72201;SDS011;60105;54.956;73.412;2022-07-05T15:15:19;7.97;;;5.80;;